Time;durP1;ratioP1;P1;durP2;ratioP2;P2;SDS_P1;SDS_P2;PMS_P1;PMS_P2;Temp;Humidity;BMP_temperature;BMP_pressure;BME280_temperature;BME280_humidity;BME280_pressure;Samples;Min_cycle;Max_cycle;Signal;HPM_P1;HPM_P2
2022/06/19 00:01:21;;;;;;;6.32;3.80;;;;;;;21.65;100.00;96142.56;4990551;28;20081;-53
2022/06/19 00:03:51;;;;;;;7.07;3.60;;;;;;;21.77;100.00;96138.06;4990917;28;20070;-54
2022/06/19 00:06:19;;;;;;;6.13;3.95;;;;;;;21.75;100.00;96132.94;4990338;28;20062;-54
2022/06/19 00:08:48;;;;;;;8.18;3.28;;;;;;;21.72;100.00;96130.69;4983926;28;20558;-49
2022/06/19 00:11:19;;;;;;;8.63;3.72;;;;;;;21.64;100.00;96127.47;4971264;28;20082;-53
2022/06/19 00:13:47;;;;;;;5.47;3.80;;;;;;;21.46;100.00;96126.41;4981709;28;20074;-49
2022/06/19 00:16:17;;;;;;;5.63;3.47;;;;;;;21.49;100.00;96117.94;4983027;28;20073;-46
2022/06/19 00:18:46;;;;;;;;;;;;;;;21.42;100.00;96109.13;4991192;28;20073;-46
2022/06/19 00:21:15;;;;;;;6.63;3.70;;;;;;;21.38;100.00;96113.28;4990194;28;19980;-47
2022/06/19 00:23:45;;;;;;;5.68;3.72;;;;;;;21.38;100.00;96099.88;4990524;28;20082;-49
2022/06/19 00:26:14;;;;;;;5.97;3.70;;;;;;;21.47;100.00;96101.25;4989614;28;21548;-52
2022/06/19 00:28:46;;;;;;;10.13;4.15;;;;;;;21.38;100.00;96094.53;4974433;28;20074;-49
2022/06/19 00:31:14;;;;;;;5.75;3.30;;;;;;;21.33;100.00;96086.25;4983765;28;20065;-55
2022/06/19 00:33:44;;;;;;;7.70;3.53;;;;;;;21.24;100.00;96077.69;4990072;28;20084;-50
2022/06/19 00:36:13;;;;;;;6.68;3.35;;;;;;;21.23;100.00;96073.38;4986164;28;20069;-50
2022/06/19 00:38:41;;;;;;;8.00;3.88;;;;;;;21.22;100.00;96065.53;4990064;28;20081;-50
2022/06/19 00:41:10;;;;;;;6.15;3.47;;;;;;;21.20;100.00;96059.59;4987011;28;20139;-53
2022/06/19 00:43:54;;;;;;;11.60;3.92;;;;;;;21.14;100.00;96055.94;4989543;28;20084;-52
2022/06/19 00:46:44;;;;;;;7.63;3.58;;;;;;;21.16;100.00;96048.47;4984728;28;20061;-51
2022/06/19 00:49:16;;;;;;;9.15;3.65;;;;;;;21.15;100.00;96037.97;4989848;28;20505;-50
2022/06/19 00:51:46;;;;;;;9.73;3.42;;;;;;;21.15;100.00;96040.66;5021051;28;20098;-50
2022/06/19 00:54:17;;;;;;;7.00;3.90;;;;;;;21.19;100.00;96029.25;4989501;28;20169;-47
2022/06/19 00:56:45;;;;;;;7.72;3.90;;;;;;;21.23;100.00;96029.63;4988795;28;20097;-58
2022/06/19 00:59:15;;;;;;;7.45;3.58;;;;;;;21.23;100.00;96024.28;4988544;28;20104;-49
2022/06/19 01:01:44;;;;;;;7.18;4.20;;;;;;;20.96;100.00;96032.59;4985842;28;20069;-52
2022/06/19 01:04:18;;;;;;;8.13;3.70;;;;;;;20.43;100.00;96034.84;4979010;28;20081;-52
2022/06/19 01:06:48;;;;;;;7.40;3.90;;;;;;;20.02;100.00;96033.44;4977796;28;20081;-53
2022/06/19 01:09:17;;;;;;;7.20;3.50;;;;;;;19.79;100.00;96032.13;4989366;28;20066;-49
2022/06/19 01:11:46;;;;;;;6.13;3.65;;;;;;;19.82;100.00;96036.22;4988424;28;20092;-54
2022/06/19 01:14:16;;;;;;;7.38;4.18;;;;;;;20.05;100.00;96035.69;4989769;28;20474;-47
2022/06/19 01:16:44;;;;;;;5.28;3.90;;;;;;;20.06;100.00;96019.44;4989553;28;20476;-55
2022/06/19 01:19:31;;;;;;;7.57;3.67;;;;;;;19.82;100.00;96022.81;4978044;28;20043;-46
2022/06/19 01:22:05;;;;;;;6.32;3.60;;;;;;;19.86;100.00;96016.03;4979672;28;20539;-53
2022/06/19 01:24:50;;;;;;;6.20;3.85;;;;;;;19.82;100.00;96001.41;4989664;28;20104;-50
2022/06/19 01:30:02;;;;;;;6.07;3.70;;;;;;;20.08;100.00;95981.72;4988247;28;20082;-52
2022/06/19 01:32:32;;;;;;;6.35;3.97;;;;;;;20.20;100.00;95969.31;4989225;28;20078;-53
2022/06/19 01:35:01;;;;;;;4.90;3.88;;;;;;;20.28;100.00;95977.06;4988921;28;20528;-55
2022/06/19 01:37:30;;;;;;;9.90;3.90;;;;;;;20.29;100.00;95970.66;4975767;28;20069;-55
2022/06/19 01:40:02;;;;;;;6.55;3.90;;;;;;;20.23;100.00;95968.03;4979249;28;20073;-50
2022/06/19 01:42:31;;;;;;;7.80;3.88;;;;;;;20.11;100.00;95974.09;4982744;28;20062;-51
2022/06/19 01:44:59;;;;;;;8.57;3.85;;;;;;;19.78;100.00;95968.09;4971289;28;20109;-56
2022/06/19 01:47:28;;;;;;;6.30;4.03;;;;;;;19.71;100.00;95961.97;4989127;28;20097;-49
2022/06/19 01:49:57;;;;;;;8.43;3.90;;;;;;;19.43;100.00;95961.25;4987797;28;20551;-52
2022/06/19 01:52:29;;;;;;;10.63;3.90;;;;;;;19.29;100.00;95958.84;4988657;28;20074;-47
2022/06/19 01:55:08;;;;;;;9.73;4.47;;;;;;;19.32;100.00;95956.56;4988645;28;20074;-55
2022/06/19 01:57:38;;;;;;;6.55;4.22;;;;;;;19.03;100.00;95960.59;4982626;28;20069;-56
2022/06/19 02:00:09;;;;;;;9.50;4.90;;;;;;;18.64;100.00;95975.59;4969545;28;20069;-51
2022/06/19 02:02:38;;;;;;;10.02;4.40;;;;;;;18.92;100.00;95956.69;4969290;28;20086;-51
2022/06/19 02:05:07;;;;;;;8.07;4.13;;;;;;;18.95;100.00;95945.56;4982786;28;20073;-49
2022/06/19 02:07:36;;;;;;;8.98;3.97;;;;;;;19.11;100.00;95948.84;4987865;28;20116;-53
2022/06/19 02:10:07;;;;;;;11.35;4.10;;;;;;;19.05;100.00;95960.34;4978072;28;20619;-52
2022/06/19 02:12:36;;;;;;;8.45;4.50;;;;;;;19.21;100.00;95947.34;4973901;28;20054;-52
2022/06/19 02:15:08;;;;;;;6.45;3.90;;;;;;;19.10;100.00;95939.19;4973929;28;20577;-48
2022/06/19 02:17:38;;;;;;;7.03;3.78;;;;;;;19.07;100.00;95936.94;4969976;28;20081;-54
2022/06/19 02:20:08;;;;;;;7.60;4.03;;;;;;;19.17;100.00;95939.97;4969293;28;20081;-53
2022/06/19 02:22:36;;;;;;;5.28;3.70;;;;;;;19.12;100.00;95945.13;4971701;28;20606;-57
2022/06/19 02:25:07;;;;;;;8.50;3.95;;;;;;;19.35;100.00;95942.78;4979104;28;20080;-55
2022/06/19 02:27:36;;;;;;;8.10;3.58;;;;;;;19.40;100.00;95936.78;4987860;28;20065;-52
2022/06/19 02:30:07;;;;;;;9.13;3.60;;;;;;;19.45;100.00;95932.44;4987483;28;20078;-55
2022/06/19 02:32:38;;;;;;;7.75;3.63;;;;;;;19.30;100.00;95926.53;4987883;28;20074;-54
2022/06/19 02:35:08;;;;;;;10.55;3.70;;;;;;;19.30;100.00;95934.56;4969429;28;20548;-54
2022/06/19 02:37:39;;;;;;;11.88;3.97;;;;;;;19.36;100.00;95928.38;4983409;28;20061;-56
2022/06/19 02:40:19;;;;;;;9.68;3.90;;;;;;;19.37;100.00;95915.81;4988015;28;20070;-56
2022/06/19 02:42:48;;;;;;;7.88;3.72;;;;;;;19.30;100.00;95910.50;4986286;28;20452;-51
2022/06/19 02:45:19;;;;;;;8.00;3.88;;;;;;;19.09;100.00;95900.91;4984040;28;20457;-52
2022/06/19 02:47:47;;;;;;;;;;;;;;;19.27;100.00;95896.72;4988435;28;20954;-49
2022/06/19 02:50:17;;;;;;;11.82;4.10;;;;;;;19.27;100.00;95902.09;4988203;28;19968;-51
2022/06/19 02:52:47;;;;;;;9.52;3.88;;;;;;;19.16;100.00;95904.38;4987688;28;20084;-49
2022/06/19 02:55:17;;;;;;;11.43;3.92;;;;;;;19.15;100.00;95891.25;4987379;28;20066;-55
2022/06/19 02:57:46;;;;;;;;;;;;;;;19.39;100.00;95895.03;4987414;28;20078;-56
2022/06/19 03:00:17;;;;;;;6.20;3.88;;;;;;;19.48;100.00;95888.41;4987828;28;19957;-53
2022/06/19 03:02:48;;;;;;;8.00;3.85;;;;;;;19.55;100.00;95885.72;4987804;28;20089;-54
2022/06/19 03:05:20;;;;;;;8.48;4.07;;;;;;;19.59;100.00;95882.38;4988865;28;20089;-51
2022/06/19 03:07:49;;;;;;;12.73;3.90;;;;;;;19.68;100.00;95878.47;4987228;28;20505;-52
2022/06/19 03:10:19;;;;;;;11.27;4.00;;;;;;;19.82;100.00;95873.00;4987224;28;20070;-51
2022/06/19 03:12:47;;;;;;;6.85;3.67;;;;;;;19.80;100.00;95878.56;4987464;28;20488;-51
2022/06/19 03:15:16;;;;;;;9.82;4.07;;;;;;;19.68;100.00;95888.31;4987876;28;20073;-49
2022/06/19 03:17:45;;;;;;;10.73;4.03;;;;;;;19.33;100.00;95899.38;4987661;28;20078;-57
2022/06/19 03:20:15;;;;;;;7.28;4.30;;;;;;;19.33;100.00;95891.34;4968324;28;20395;-50
2022/06/19 03:22:43;;;;;;;7.25;3.78;;;;;;;19.15;100.00;95902.75;4981993;28;20085;-53
2022/06/19 03:25:13;;;;;;;6.30;3.88;;;;;;;18.83;100.00;95901.84;4986890;28;20496;-52
2022/06/19 03:27:42;;;;;;;9.40;3.85;;;;;;;19.16;100.00;95895.56;4986999;28;20070;-58
2022/06/19 03:30:12;;;;;;;9.45;3.90;;;;;;;18.95;100.00;95902.00;4982816;28;20074;-49
2022/06/19 03:32:41;;;;;;;9.90;4.53;;;;;;;18.94;100.00;95901.19;4967472;28;20085;-51
2022/06/19 03:35:09;;;;;;;6.38;3.33;;;;;;;19.33;100.00;95906.59;4987439;28;20702;-51
2022/06/19 03:37:39;;;;;;;9.10;3.97;;;;;;;19.42;100.00;95905.31;4985964;28;20078;-55
2022/06/19 03:40:09;;;;;;;6.60;3.90;;;;;;;19.61;100.00;95909.75;4985590;28;20426;-55
2022/06/19 03:42:38;;;;;;;7.13;3.88;;;;;;;19.67;100.00;95908.09;4988855;28;20456;-53
2022/06/19 03:45:09;;;;;;;5.30;3.63;;;;;;;19.59;100.00;95911.81;4986986;28;20062;-57
2022/06/19 03:47:37;;;;;;;7.63;3.75;;;;;;;20.14;100.00;95911.25;4987625;28;20081;-50
2022/06/19 03:50:07;;;;;;;11.43;4.00;;;;;;;20.98;100.00;95917.09;4985836;28;20070;-57
2022/06/19 03:52:35;;;;;;;8.07;3.80;;;;;;;21.60;100.00;95911.63;4972402;28;20065;-53
2022/06/19 03:55:04;;;;;;;8.40;3.80;;;;;;;22.07;100.00;95904.53;4978747;28;20411;-53
2022/06/19 03:57:32;;;;;;;7.97;3.88;;;;;;;21.12;100.00;95910.53;4988288;28;20066;-52
2022/06/19 04:00:00;;;;;;;9.45;3.80;;;;;;;21.49;100.00;95908.66;4985112;28;20045;-51
2022/06/19 04:02:30;;;;;;;7.25;3.40;;;;;;;21.44;100.00;95899.66;4966742;28;20089;-49
2022/06/19 04:04:59;;;;;;;9.07;3.30;;;;;;;21.55;100.00;95901.56;4968198;28;20078;-52
2022/06/19 04:07:27;;;;;;;10.50;3.83;;;;;;;21.62;100.00;95894.25;4980941;28;20080;-53
2022/06/19 04:09:59;;;;;;;7.55;3.60;;;;;;;21.41;100.00;95895.56;4989439;28;20088;-52
2022/06/19 04:12:27;;;;;;;8.40;3.80;;;;;;;21.90;100.00;95906.25;4984519;28;20575;-45
2022/06/19 04:14:56;;;;;;;12.73;3.50;;;;;;;22.26;100.00;95899.91;4985714;28;20093;-50
2022/06/19 04:17:24;;;;;;;8.52;3.80;;;;;;;22.67;100.00;95899.00;4967521;28;20078;-55
2022/06/19 04:19:54;;;;;;;8.00;3.30;;;;;;;22.38;100.00;95895.38;4981498;28;20077;-49
2022/06/19 04:22:22;;;;;;;7.40;3.53;;;;;;;22.34;100.00;95899.59;4973610;28;20066;-53
2022/06/19 04:24:51;;;;;;;8.88;3.83;;;;;;;21.78;100.00;95907.03;4976868;28;20055;-52
2022/06/19 04:27:19;;;;;;;11.00;4.07;;;;;;;22.21;100.00;95889.06;4986462;28;20486;-52
2022/06/19 04:29:48;;;;;;;7.65;3.95;;;;;;;22.10;100.00;95887.97;4985523;28;20090;-54
2022/06/19 04:32:16;;;;;;;8.85;3.78;;;;;;;23.24;100.00;95884.09;4987514;28;20082;-54
2022/06/19 04:34:45;;;;;;;7.07;3.65;;;;;;;23.30;100.00;95885.84;4987000;28;20089;-56
2022/06/19 04:37:14;;;;;;;7.82;3.88;;;;;;;23.64;100.00;95884.03;4986856;28;20055;-53
2022/06/19 04:39:43;;;;;;;;;;;;;;;25.35;100.00;95877.28;4986030;28;20073;-49
2022/06/19 04:42:11;;;;;;;6.40;3.55;;;;;;;26.31;100.00;95881.22;4985951;28;19953;-50
2022/06/19 04:44:40;;;;;;;6.53;3.53;;;;;;;26.96;100.00;95886.28;4986248;28;20093;-53
2022/06/19 04:47:08;;;;;;;7.78;4.22;;;;;;;27.21;100.00;95885.63;4988724;28;20073;-50
2022/06/19 04:49:36;;;;;;;9.52;4.70;;;;;;;27.76;100.00;95888.00;4974974;28;20150;-50
2022/06/19 04:52:06;;;;;;;7.72;4.30;;;;;;;28.16;100.00;95888.06;4972732;28;20073;-45
2022/06/19 04:54:35;;;;;;;6.70;4.33;;;;;;;28.31;100.00;95892.66;4971854;28;20051;-51
2022/06/19 04:57:05;;;;;;;6.53;4.53;;;;;;;28.57;100.00;95898.94;4971457;28;20549;-53
2022/06/19 04:59:33;;;;;;;8.65;4.55;;;;;;;28.96;100.00;95894.81;4972587;28;20106;-50
2022/06/19 05:02:01;;;;;;;9.07;4.25;;;;;;;29.15;100.00;95895.03;4974792;28;20074;-53
2022/06/19 05:04:30;;;;;;;9.15;4.47;;;;;;;29.40;100.00;95894.16;4983477;28;20065;-55
2022/06/19 05:06:58;;;;;;;7.80;4.50;;;;;;;29.49;100.00;95890.59;4989800;28;20077;-56
2022/06/19 05:09:28;;;;;;;8.32;4.43;;;;;;;29.78;100.00;95893.44;4990371;28;20073;-56
2022/06/19 05:11:58;;;;;;;6.97;4.10;;;;;;;30.09;100.00;95884.28;4988136;28;20086;-50
2022/06/19 05:14:26;;;;;;;6.57;4.50;;;;;;;30.10;100.00;95889.44;4969870;28;20093;-53
2022/06/19 05:16:54;;;;;;;9.45;4.32;;;;;;;28.81;100.00;95890.25;4976364;28;20062;-55
2022/06/19 05:19:22;;;;;;;6.70;4.75;;;;;;;28.31;100.00;95894.56;4982445;28;20069;-54
2022/06/19 05:21:51;;;;;;;7.82;4.68;;;;;;;29.20;100.00;95885.00;4988805;28;20081;-54
2022/06/19 05:24:19;;;;;;;7.55;4.80;;;;;;;29.84;100.00;95888.00;4988918;28;20518;-58
2022/06/19 05:26:50;;;;;;;9.50;4.88;;;;;;;29.85;99.60;95892.34;4987567;28;20174;-59
2022/06/19 05:29:20;;;;;;;9.82;4.43;;;;;;;29.95;99.92;95897.72;4988728;28;20081;-53
2022/06/19 05:31:48;;;;;;;;;;;;;;;28.14;100.00;95895.66;4986886;28;20544;-53
2022/06/19 05:34:16;;;;;;;9.88;3.92;;;;;;;27.79;100.00;95892.91;4986278;28;19967;-56
2022/06/19 05:36:45;;;;;;;8.27;4.32;;;;;;;27.19;100.00;95895.09;4977994;28;20081;-53
2022/06/19 05:39:13;;;;;;;11.10;4.25;;;;;;;27.88;100.00;95883.16;4970325;28;20063;-52
2022/06/19 05:41:42;;;;;;;11.25;4.45;;;;;;;26.92;100.00;95882.47;4969732;28;20101;-53
2022/06/19 05:44:11;;;;;;;8.90;4.78;;;;;;;25.91;100.00;95885.19;4985146;28;20073;-52
2022/06/19 05:46:42;;;;;;;13.50;4.88;;;;;;;26.30;100.00;95883.13;4985786;28;20058;-55
2022/06/19 05:49:11;;;;;;;8.65;4.55;;;;;;;26.97;100.00;95874.38;4985814;28;20085;-63
2022/06/19 05:51:39;;;;;;;12.45;4.82;;;;;;;27.44;100.00;95878.94;4986884;28;20066;-60
2022/06/19 05:54:07;;;;;;;13.13;5.10;;;;;;;27.22;100.00;95875.63;4985203;28;20059;-57
2022/06/19 05:56:36;;;;;;;13.32;5.20;;;;;;;26.92;100.00;95878.97;4969706;28;20066;-52
2022/06/19 05:59:04;;;;;;;13.88;5.35;;;;;;;27.02;100.00;95876.31;4969231;28;20066;-51
2022/06/19 06:01:33;;;;;;;11.45;4.65;;;;;;;26.99;100.00;95876.84;4981937;28;20077;-53
2022/06/19 06:04:03;;;;;;;14.57;4.75;;;;;;;26.97;100.00;95877.09;4985898;28;20070;-55
2022/06/19 06:06:33;;;;;;;8.38;4.38;;;;;;;27.01;100.00;95869.25;4981330;28;20108;-52
2022/06/19 06:09:01;;;;;;;14.75;4.78;;;;;;;27.74;100.00;95866.56;4971421;28;20082;-54
2022/06/19 06:11:30;;;;;;;10.20;4.30;;;;;;;28.20;100.00;95868.56;4968681;28;20082;-53
2022/06/19 06:13:58;;;;;;;13.18;4.50;;;;;;;27.76;100.00;95877.97;4967592;28;20074;-55
2022/06/19 06:16:27;;;;;;;12.52;4.55;;;;;;;26.93;100.00;95875.97;4983231;28;20065;-52
2022/06/19 06:18:55;;;;;;;13.00;4.70;;;;;;;26.93;100.00;95878.69;4984906;28;20066;-48
2022/06/19 06:21:26;;;;;;;21.83;5.03;;;;;;;27.78;100.00;95888.56;4985503;28;20074;-52
2022/06/19 06:23:55;;;;;;;13.48;4.65;;;;;;;27.21;100.00;95882.91;4986543;28;20551;-48
2022/06/19 06:26:26;;;;;;;18.73;4.72;;;;;;;28.01;100.00;95882.66;4988869;28;20512;-51
2022/06/19 06:28:57;;;;;;;16.95;4.93;;;;;;;27.69;100.00;95875.50;4984979;28;20465;-48
2022/06/19 06:31:25;;;;;;;15.82;4.97;;;;;;;27.91;100.00;95885.34;4987319;28;20073;-56
2022/06/19 06:33:57;;;;;;;15.73;4.93;;;;;;;27.77;100.00;95884.22;4986429;28;20645;-51
2022/06/19 06:36:28;;;;;;;14.80;4.68;;;;;;;28.33;100.00;95882.38;4986082;28;20603;-58
2022/06/19 06:38:56;;;;;;;;;;;;;;;27.66;100.00;95884.16;4986966;28;20078;-54
2022/06/19 06:41:25;;;;;;;16.33;4.95;;;;;;;27.40;100.00;95883.28;4988789;28;19956;-49
2022/06/19 06:43:53;;;;;;;12.57;4.65;;;;;;;28.45;100.00;95884.03;4986189;28;20092;-51
2022/06/19 06:46:23;;;;;;;12.15;4.70;;;;;;;27.63;100.00;95898.25;4987135;28;20065;-53
2022/06/19 06:48:53;;;;;;;16.98;5.45;;;;;;;27.93;100.00;95902.13;4987697;28;20058;-49
2022/06/19 06:51:24;;;;;;;17.40;4.93;;;;;;;28.79;100.00;95904.06;4987159;28;20062;-48
2022/06/19 06:53:54;;;;;;;;;;;;;;;28.00;100.00;95897.25;4988384;28;20077;-57
2022/06/19 06:56:22;;;;;;;14.60;4.72;;;;;;;28.42;100.00;95904.38;4984714;28;19964;-47
2022/06/19 06:58:51;;;;;;;13.98;4.90;;;;;;;28.33;100.00;95895.13;4987427;28;20074;-54
2022/06/19 07:01:22;;;;;;;16.13;4.70;;;;;;;29.48;100.00;95899.00;4985139;28;20062;-52
2022/06/19 07:03:55;;;;;;;15.60;4.85;;;;;;;28.64;100.00;95901.38;4987214;28;20046;-47
2022/06/19 07:06:25;;;;;;;19.67;5.05;;;;;;;29.23;100.00;95892.59;4985604;28;20069;-47
2022/06/19 07:08:55;;;;;;;18.88;5.25;;;;;;;29.28;100.00;95891.75;4986262;28;21701;-51
2022/06/19 07:11:25;;;;;;;16.40;5.03;;;;;;;29.08;100.00;95885.31;4988701;28;20082;-52
2022/06/19 07:13:54;;;;;;;11.70;4.88;;;;;;;29.10;100.00;95885.84;4983829;28;20069;-50
2022/06/19 07:16:22;;;;;;;18.05;4.90;;;;;;;29.77;100.00;95888.31;4986336;28;20092;-48
2022/06/19 07:18:52;;;;;;;21.00;4.60;;;;;;;30.12;100.00;95887.25;4985440;28;20074;-50
2022/06/19 07:21:21;;;;;;;16.55;4.80;;;;;;;30.03;100.00;95881.59;4986362;28;20077;-53
2022/06/19 07:23:49;;;;;;;18.17;5.00;;;;;;;30.00;100.00;95881.34;4986038;28;20143;-52
2022/06/19 07:26:21;;;;;;;13.90;5.05;;;;;;;30.61;100.00;95882.81;4985977;28;20074;-48
2022/06/19 07:28:49;;;;;;;18.80;5.95;;;;;;;30.71;100.00;95880.78;4985930;28;20080;-49
2022/06/19 07:31:25;;;;;;;17.42;4.30;;;;;;;29.97;100.00;95888.19;4984955;28;20081;-57
2022/06/19 07:33:54;;;;;;;13.93;4.90;;;;;;;30.60;100.00;95881.19;4985793;28;20446;-50
2022/06/19 07:36:24;;;;;;;16.95;5.22;;;;;;;30.78;100.00;95879.69;4987022;28;20077;-51
2022/06/19 07:38:52;;;;;;;14.93;5.05;;;;;;;30.20;100.00;95888.59;4985433;28;20090;-49
2022/06/19 07:41:22;;;;;;;15.20;4.95;;;;;;;30.71;100.00;95877.25;4985914;28;20089;-52
2022/06/19 07:43:51;;;;;;;13.93;4.88;;;;;;;29.58;100.00;95890.81;4985724;28;20540;-50
2022/06/19 07:46:20;;;;;;;15.98;5.13;;;;;;;30.54;100.00;95877.69;4985491;28;20070;-55
2022/06/19 07:51:35;;;;;;;12.00;4.68;;;;;;;30.14;100.00;95884.25;4985441;28;20517;-50
2022/06/19 07:54:03;;;;;;;16.25;4.65;;;;;;;30.21;100.00;95884.75;4986463;28;20086;-60
2022/06/19 07:56:33;;;;;;;16.25;5.05;;;;;;;30.20;100.00;95877.69;4986335;28;20548;-55
2022/06/19 07:59:03;;;;;;;19.92;5.45;;;;;;;30.28;100.00;95887.97;4982795;28;20065;-56
2022/06/19 08:01:31;;;;;;;23.50;4.70;;;;;;;29.80;100.00;95883.13;4986736;28;20525;-52
2022/06/19 08:04:19;;;;;;;17.48;5.03;;;;;;;30.17;100.00;95881.75;4984866;28;20799;-59
2022/06/19 08:06:48;;;;;;;20.77;4.95;;;;;;;30.30;100.00;95885.78;4987144;28;20073;-56
2022/06/19 08:09:17;;;;;;;15.88;4.60;;;;;;;30.54;100.00;95883.13;4985457;28;20458;-55
2022/06/19 08:11:46;;;;;;;16.08;4.80;;;;;;;30.87;100.00;95886.13;4986397;28;20090;-56
2022/06/19 08:14:15;;;;;;;13.00;4.40;;;;;;;30.55;100.00;95878.50;4966027;28;21586;-53
2022/06/19 08:16:43;;;;;;;16.83;4.78;;;;;;;30.81;100.00;95874.47;4981901;28;20081;-49
2022/06/19 08:19:11;;;;;;;21.92;5.00;;;;;;;30.56;100.00;95880.94;4974826;28;20075;-52
2022/06/19 08:21:40;;;;;;;19.33;5.10;;;;;;;30.82;100.00;95886.97;4979307;28;20038;-53
2022/06/19 08:24:08;;;;;;;20.70;5.15;;;;;;;30.98;100.00;95879.47;4991982;28;20088;-55
2022/06/19 08:26:37;;;;;;;17.80;5.78;;;;;;;30.81;100.00;95871.75;4990659;28;20081;-49
2022/06/19 08:29:06;;;;;;;20.33;5.05;;;;;;;31.00;100.00;95873.72;4987159;28;20074;-52
2022/06/19 08:31:35;;;;;;;16.17;5.22;;;;;;;31.37;100.00;95878.50;4990145;28;20062;-58
2022/06/19 08:34:03;;;;;;;16.15;5.00;;;;;;;31.37;100.00;95879.31;4991015;28;20174;-51
2022/06/19 08:36:34;;;;;;;13.13;5.03;;;;;;;31.31;98.71;95885.88;4990149;28;20062;-51
2022/06/19 08:39:06;;;;;;;16.20;4.85;;;;;;;31.42;100.00;95879.25;4990587;28;20540;-53
2022/06/19 08:41:54;;;;;;;18.90;5.03;;;;;;;31.31;95.43;95880.44;4992351;28;20070;-53
2022/06/19 08:44:43;;;;;;;18.63;5.13;;;;;;;31.47;99.48;95878.38;4991642;28;21498;-52
2022/06/19 08:47:44;;;;;;;14.80;4.93;;;;;;;32.15;90.72;95874.47;4985953;28;20081;-57
2022/06/19 08:50:22;;;;;;;15.30;5.13;;;;;;;32.28;96.52;95881.91;4990994;28;21539;-54
2022/06/19 08:53:00;;;;;;;19.48;5.10;;;;;;;32.18;100.00;95871.13;4991733;28;20069;-51
2022/06/19 08:55:35;;;;;;;16.05;5.22;;;;;;;32.14;85.78;95881.00;4990899;28;20081;-47
2022/06/19 08:58:10;;;;;;;16.02;4.97;;;;;;;31.95;82.86;95881.03;4983674;28;20067;-52
2022/06/19 09:00:48;;;;;;;17.83;5.40;;;;;;;32.17;87.71;95880.41;4975307;28;20066;-54
2022/06/19 09:03:24;;;;;;;18.95;5.82;;;;;;;32.22;86.77;95883.06;4981227;28;20082;-54
2022/06/19 09:05:58;;;;;;;17.92;5.47;;;;;;;32.26;97.03;95878.63;4976907;28;20075;-50
2022/06/19 09:08:59;;;;;;;19.23;5.18;;;;;;;32.78;83.19;95878.63;4988867;28;20078;-48
2022/06/19 09:11:47;;;;;;;15.25;5.10;;;;;;;32.53;80.92;95879.88;4985765;28;20523;-52
2022/06/19 09:14:27;;;;;;;15.02;5.43;;;;;;;32.43;84.08;95883.59;4984239;28;20733;-53
2022/06/19 09:17:03;;;;;;;15.95;5.60;;;;;;;32.60;88.95;95875.66;4986826;28;20062;-49
2022/06/19 09:19:51;;;;;;;18.10;5.38;;;;;;;32.70;78.87;95871.94;4984248;28;20069;-51
2022/06/19 09:22:41;;;;;;;15.85;5.18;;;;;;;32.56;84.01;95884.75;4984239;28;20066;-48
2022/06/19 09:25:29;;;;;;;16.35;5.30;;;;;;;32.83;91.71;95879.34;4985575;28;20066;-52
2022/06/19 09:28:02;;;;;;;18.67;5.55;;;;;;;33.01;94.39;95874.13;4988776;28;20062;-49
2022/06/19 09:30:35;;;;;;;17.30;5.68;;;;;;;32.96;85.00;95875.03;4985160;28;20090;-53
2022/06/19 09:33:10;;;;;;;15.48;5.47;;;;;;;33.08;85.88;95871.81;4985715;28;20291;-51
2022/06/19 09:35:42;;;;;;;34.85;5.60;;;;;;;33.09;76.19;95867.94;4986524;28;20463;-47
2022/06/19 09:38:16;;;;;;;16.45;5.95;;;;;;;33.34;81.04;95872.09;4985083;28;20073;-61
2022/06/19 09:40:48;;;;;;;15.23;5.30;;;;;;;33.41;72.82;95869.75;4985931;28;20078;-48
2022/06/19 09:43:22;;;;;;;16.48;6.00;;;;;;;33.64;72.93;95867.94;4985742;28;20454;-50
2022/06/19 09:45:54;;;;;;;18.30;5.47;;;;;;;33.84;72.79;95871.34;4979573;28;20081;-54
2022/06/19 09:48:27;;;;;;;15.15;5.75;;;;;;;33.94;73.76;95865.66;4975043;28;20463;-53
2022/06/19 09:51:00;;;;;;;19.98;5.72;;;;;;;34.17;69.07;95866.50;4989337;28;20515;-48
2022/06/19 09:53:32;;;;;;;24.67;5.30;;;;;;;34.80;58.64;95856.47;4990142;28;20497;-52
2022/06/19 09:56:24;;;;;;;17.48;5.80;;;;;;;34.73;61.07;95844.03;4987960;28;20073;-58
2022/06/19 09:58:56;;;;;;;20.95;5.88;;;;;;;33.93;61.11;95856.66;4986525;28;20065;-57
2022/06/19 10:01:25;;;;;;;19.70;6.13;;;;;;;34.45;56.12;95856.25;4985268;28;20074;-48
2022/06/19 10:03:58;;;;;;;19.73;6.00;;;;;;;34.64;57.31;95851.41;4989225;28;20070;-55
2022/06/19 10:06:34;;;;;;;16.38;5.32;;;;;;;34.70;50.00;95846.59;5018592;28;20066;-55
2022/06/19 10:09:05;;;;;;;23.05;5.90;;;;;;;35.35;50.91;95843.19;4987111;28;20070;-56
2022/06/19 10:11:37;;;;;;;24.27;6.20;;;;;;;35.32;53.43;95838.34;4988112;28;20085;-52
2022/06/19 10:14:11;;;;;;;16.40;5.72;;;;;;;35.22;53.10;95841.38;4989820;28;20608;-54
2022/06/19 10:16:50;;;;;;;18.63;5.50;;;;;;;35.48;55.64;95843.34;4985340;28;20070;-53
2022/06/19 10:19:23;;;;;;;21.55;6.38;;;;;;;35.18;53.19;95832.97;4987655;28;20062;-50
2022/06/19 10:22:15;;;;;;;17.58;5.75;;;;;;;35.60;52.53;95840.84;4986235;28;20071;-52
2022/06/19 10:24:57;;;;;;;19.95;6.00;;;;;;;34.97;47.54;95835.44;4990184;28;20077;-51
2022/06/19 10:27:33;;;;;;;19.30;5.82;;;;;;;35.72;50.55;95835.53;4987189;28;20073;-52
2022/06/19 10:30:05;;;;;;;21.60;6.53;;;;;;;35.80;47.21;95829.25;4989709;28;20452;-57
2022/06/19 10:32:48;;;;;;;16.63;6.38;;;;;;;35.50;50.17;95827.41;4990260;28;20065;-53
2022/06/19 10:35:24;;;;;;;24.23;6.95;;;;;;;35.65;49.15;95835.19;4988778;28;20298;-53
2022/06/19 10:38:04;;;;;;;20.45;7.07;;;;;;;35.72;45.29;95835.53;4988535;28;20062;-52
2022/06/19 10:40:39;;;;;;;16.42;6.68;;;;;;;35.70;45.83;95826.81;4989742;28;20553;-52
2022/06/19 10:43:22;;;;;;;15.75;6.45;;;;;;;35.33;47.03;95826.22;4988968;28;20077;-52
2022/06/19 10:45:53;;;;;;;20.45;6.30;;;;;;;36.01;48.31;95825.91;4990343;28;20069;-57
2022/06/19 10:48:27;;;;;;;23.13;7.18;;;;;;;35.54;47.58;95831.16;4989675;28;20054;-55
2022/06/19 10:51:41;;;;;;;14.90;6.70;;;;;;;36.24;42.72;95826.53;4989202;28;20070;-55
2022/06/19 10:54:43;;;;;;;23.90;7.20;;;;;;;36.83;41.60;95818.50;4981325;28;20066;-57
2022/06/19 10:57:17;;;;;;;18.00;6.47;;;;;;;36.32;44.10;95818.25;4988399;28;20097;-51
2022/06/19 10:59:47;;;;;;;19.35;6.57;;;;;;;36.43;51.24;95815.97;4988991;28;20112;-56
2022/06/19 11:05:18;;;;;;;17.90;7.30;;;;;;;36.33;52.34;95799.84;4965978;28;20400;-56
2022/06/19 11:07:46;;;;;;;16.63;7.15;;;;;;;36.27;50.75;95801.16;4981066;28;20062;-51
2022/06/19 11:10:20;;;;;;;15.68;7.15;;;;;;;36.01;53.51;95801.19;4988916;28;20078;-53
2022/06/19 11:12:56;;;;;;;18.60;8.00;;;;;;;35.77;47.00;95802.44;4989242;28;20074;-55
2022/06/19 11:15:32;;;;;;;17.70;7.95;;;;;;;36.16;45.99;95803.41;4989253;28;20649;-53
2022/06/19 11:18:13;;;;;;;18.42;7.53;;;;;;;35.67;49.38;95800.81;4989386;28;20557;-57
2022/06/19 11:20:44;;;;;;;13.95;7.53;;;;;;;35.70;54.42;95796.63;4989507;28;20077;-50
2022/06/19 11:23:24;;;;;;;15.88;7.22;;;;;;;35.97;51.72;95798.25;4988339;28;20569;-55
2022/06/19 11:25:59;;;;;;;;;;;;;;;36.31;49.41;95791.94;4988575;28;20709;-48
2022/06/19 11:28:42;;;;;;;13.93;7.43;;;;;;;35.97;55.36;95792.78;4986142;28;20410;-50
2022/06/19 11:31:14;;;;;;;17.58;7.40;;;;;;;35.89;57.06;95791.66;4988685;28;20149;-55
2022/06/19 11:33:43;;;;;;;16.63;8.07;;;;;;;35.96;54.62;95785.66;4989107;28;20065;-50
2022/06/19 11:36:30;;;;;;;22.10;7.90;;;;;;;35.83;52.63;95792.13;4988330;28;20070;-54
2022/06/19 11:39:00;;;;;;;18.65;7.85;;;;;;;36.19;49.98;95794.53;4986877;28;20066;-50
2022/06/19 11:41:33;;;;;;;18.45;7.78;;;;;;;36.23;57.66;95792.75;4988574;28;20093;-50
2022/06/19 11:44:06;;;;;;;16.65;7.55;;;;;;;36.49;55.79;95784.50;4985660;28;20066;-57
2022/06/19 11:46:45;;;;;;;17.23;7.55;;;;;;;36.33;52.53;95786.91;4986539;28;20062;-53
2022/06/19 11:49:19;;;;;;;17.73;7.53;;;;;;;36.35;54.57;95792.09;4987309;28;20070;-50
2022/06/19 11:51:48;;;;;;;20.98;7.72;;;;;;;36.37;50.41;95789.81;4985422;28;20046;-50
2022/06/19 11:54:17;;;;;;;17.58;7.63;;;;;;;36.91;46.60;95779.16;4988815;28;20504;-55